createdAt,value
2022-12-01T00:01:19.466Z,45.17
2022-12-01T00:03:46.362Z,48.97
2022-12-01T00:06:16.609Z,48.95
2022-12-01T00:09:04.047Z,48.97
2022-12-01T00:11:31.481Z,46.17
2022-12-01T00:13:58.524Z,47.13
2022-12-01T00:16:25.798Z,44.80
2022-12-01T00:18:53.689Z,49.35
2022-12-01T00:21:22.784Z,47.30
2022-12-01T00:23:55.580Z,47.58
2022-12-01T00:26:23.532Z,45.08
2022-12-01T00:28:54.783Z,48.55
2022-12-01T00:31:22.983Z,47.88
2022-12-01T00:33:50.554Z,54.08
2022-12-01T00:36:17.889Z,50.33
2022-12-01T00:38:45.084Z,45.33
2022-12-01T00:41:11.965Z,44.45
2022-12-01T00:43:39.872Z,43.33
2022-12-01T00:46:06.872Z,46.92
2022-12-01T00:48:33.903Z,49.70
2022-12-01T00:51:00.894Z,46.95
2022-12-01T00:53:27.846Z,48.67
2022-12-01T00:55:54.773Z,48.67
2022-12-01T00:58:22.801Z,49.60
2022-12-01T01:00:50.035Z,51.42
2022-12-01T01:03:17.079Z,50.63
2022-12-01T01:05:44.319Z,48.42
2022-12-01T01:08:14.923Z,49.42
2022-12-01T01:10:46.941Z,46.55
2022-12-01T01:13:15.038Z,50.25
2022-12-01T01:15:42.464Z,48.53
2022-12-01T01:18:12.056Z,51.08
2022-12-01T01:20:39.227Z,47.97
2022-12-01T01:23:06.262Z,48.30
2022-12-01T01:25:33.790Z,50.17
2022-12-01T01:28:00.639Z,51.10
2022-12-01T01:30:27.757Z,49.25
2022-12-01T01:32:54.824Z,46.83
2022-12-01T01:35:21.719Z,50.38
2022-12-01T01:37:50.078Z,48.28
2022-12-01T01:40:17.328Z,50.22
2022-12-01T01:42:44.269Z,51.08
2022-12-01T01:45:28.640Z,50.63
2022-12-01T01:47:58.347Z,51.45
2022-12-01T01:50:28.112Z,50.88
2022-12-01T01:53:12.567Z,50.92
2022-12-01T01:58:10.498Z,48.72
2022-12-01T02:00:40.946Z,47.47
2022-12-01T02:03:11.159Z,48.10
2022-12-01T02:05:39.589Z,46.85
2022-12-01T02:08:12.322Z,52.55
2022-12-01T02:11:18.188Z,54.00
2022-12-01T02:14:08.290Z,55.65
2022-12-01T02:16:53.488Z,53.20
2022-12-01T02:19:42.399Z,50.80
2022-12-01T02:22:27.910Z,50.65
2022-12-01T02:25:14.303Z,51.30
2022-12-01T02:28:13.481Z,47.55
2022-12-01T02:30:58.785Z,49.58
2022-12-01T02:33:29.394Z,50.35
2022-12-01T02:36:02.111Z,49.05
2022-12-01T02:38:48.393Z,50.13
2022-12-01T02:41:29.625Z,53.05
2022-12-01T02:44:22.885Z,52.20
2022-12-01T02:47:16.115Z,52.67
2022-12-01T02:49:52.244Z,50.88
2022-12-01T02:52:20.746Z,50.17
2022-12-01T02:54:48.512Z,51.67
2022-12-01T02:57:17.318Z,54.67
2022-12-01T02:59:50.822Z,55.78
2022-12-01T03:02:49.493Z,56.88
2022-12-01T03:05:49.510Z,51.30
2022-12-01T03:08:29.168Z,53.13
2022-12-01T03:10:57.997Z,53.75
2022-12-01T03:13:39.941Z,53.85
2022-12-01T03:16:16.902Z,54.17
2022-12-01T03:19:01.764Z,55.88
2022-12-01T03:21:28.604Z,56.63
2022-12-01T03:24:01.150Z,55.42
2022-12-01T03:26:31.520Z,50.10
2022-12-01T03:29:07.791Z,54.67
2022-12-01T03:31:42.741Z,55.78
2022-12-01T03:34:24.096Z,55.88
2022-12-01T03:36:56.788Z,58.58
2022-12-01T03:39:29.552Z,54.22
2022-12-01T03:42:31.615Z,53.53
2022-12-01T03:45:03.820Z,57.03
2022-12-01T03:47:37.565Z,53.00
2022-12-01T03:50:06.701Z,52.97
2022-12-01T03:52:49.616Z,59.47
2022-12-01T03:55:23.146Z,53.38
2022-12-01T03:58:18.552Z,51.10
2022-12-01T04:00:49.922Z,52.97
2022-12-01T04:03:19.423Z,53.60
2022-12-01T04:05:46.832Z,53.03
2022-12-01T04:08:13.993Z,54.22
2022-12-01T04:10:40.919Z,52.92
2022-12-01T04:13:12.201Z,57.50
2022-12-01T04:15:39.134Z,56.78
2022-12-01T04:18:06.120Z,49.83
2022-12-01T04:20:33.128Z,51.97
2022-12-01T04:23:00.047Z,53.30
2022-12-01T04:25:26.984Z,56.28
2022-12-01T04:27:53.887Z,58.20
2022-12-01T04:30:20.758Z,55.63
2022-12-01T04:32:47.725Z,57.42
2022-12-01T04:35:17.694Z,54.95
2022-12-01T04:37:44.867Z,53.47
2022-12-01T04:40:12.123Z,55.97
2022-12-01T04:42:39.020Z,54.25
2022-12-01T04:45:06.417Z,57.78
2022-12-01T04:47:33.322Z,51.78
2022-12-01T04:50:00.595Z,57.10
2022-12-01T04:52:33.621Z,49.60
2022-12-01T04:55:03.450Z,50.05
2022-12-01T04:57:30.449Z,55.40
2022-12-01T04:59:57.492Z,51.42
2022-12-01T05:02:24.543Z,48.78
2022-12-01T05:04:51.533Z,51.53
2022-12-01T05:07:18.444Z,50.67
2022-12-01T05:09:45.442Z,55.13
2022-12-01T05:12:12.378Z,52.45
2022-12-01T05:14:39.284Z,50.88
2022-12-01T05:17:06.328Z,53.47
2022-12-01T05:19:51.844Z,53.42
2022-12-01T05:22:36.496Z,52.65
2022-12-01T05:25:05.867Z,52.85
2022-12-01T05:27:32.747Z,54.75
2022-12-01T05:29:59.687Z,52.00
2022-12-01T05:32:26.562Z,52.45
2022-12-01T05:34:53.519Z,53.25
2022-12-01T05:37:20.554Z,50.25
2022-12-01T05:39:47.847Z,50.88
2022-12-01T05:42:15.102Z,52.00
2022-12-01T05:44:42.058Z,50.53
2022-12-01T05:47:09.001Z,56.13
2022-12-01T05:49:36.004Z,52.22
2022-12-01T05:52:02.976Z,51.50
2022-12-01T05:54:30.335Z,53.33
2022-12-01T05:56:57.280Z,54.03
2022-12-01T05:59:24.319Z,50.08
2022-12-01T06:01:51.336Z,51.15
2022-12-01T06:04:18.936Z,56.08
2022-12-01T06:06:46.014Z,51.60
2022-12-01T06:09:12.878Z,55.15
2022-12-01T06:11:39.768Z,52.42
2022-12-01T06:14:06.670Z,50.50
2022-12-01T06:16:33.799Z,50.53
2022-12-01T06:19:00.802Z,55.25
2022-12-01T06:21:27.735Z,52.80
2022-12-01T06:23:54.800Z,52.08
2022-12-01T06:26:21.667Z,51.75
2022-12-01T06:28:48.587Z,50.45
2022-12-01T06:31:15.527Z,49.60
2022-12-01T06:33:42.420Z,53.33
2022-12-01T06:36:10.518Z,54.45
2022-12-01T06:38:37.807Z,52.67
2022-12-01T06:41:05.976Z,48.00
2022-12-01T06:43:35.412Z,52.22
2022-12-01T06:46:03.998Z,48.83
2022-12-01T06:48:34.579Z,48.33
2022-12-01T06:51:02.115Z,50.50
2022-12-01T06:53:29.752Z,48.05
2022-12-01T06:56:04.426Z,48.90
2022-12-01T06:58:32.519Z,43.95
2022-12-01T07:00:59.917Z,45.25
2022-12-01T07:03:27.487Z,49.05
2022-12-01T07:06:01.854Z,44.85
2022-12-01T07:08:30.502Z,45.75
2022-12-01T07:11:02.006Z,44.13
2022-12-01T07:13:33.453Z,42.60
2022-12-01T07:16:04.896Z,42.80
2022-12-01T07:18:33.092Z,44.05
2022-12-01T07:21:01.668Z,44.58
2022-12-01T07:23:29.060Z,42.83
2022-12-01T07:26:05.028Z,43.55
2022-12-01T07:28:32.445Z,43.10
2022-12-01T07:31:11.579Z,47.03
2022-12-01T07:33:39.089Z,45.45
2022-12-01T07:36:07.246Z,42.60
2022-12-01T07:38:34.949Z,46.30
2022-12-01T07:41:07.172Z,42.15
2022-12-01T07:43:34.457Z,37.70
2022-12-01T07:46:23.529Z,41.03
2022-12-01T07:48:51.715Z,37.90
2022-12-01T07:51:19.498Z,42.38
2022-12-01T07:53:49.375Z,40.97
2022-12-01T07:56:17.488Z,40.10
2022-12-01T07:58:45.139Z,40.47
2022-12-01T08:01:20.763Z,35.10
2022-12-01T08:03:53.233Z,37.70
2022-12-01T08:06:20.942Z,34.17
2022-12-01T08:08:48.482Z,33.15
2022-12-01T08:11:21.506Z,31.90
2022-12-01T08:13:49.430Z,31.35
2022-12-01T08:16:19.172Z,28.73
2022-12-01T08:18:46.389Z,27.33
2022-12-01T08:21:16.090Z,28.10
2022-12-01T08:23:43.804Z,29.55
2022-12-01T08:26:19.007Z,27.75
2022-12-01T08:28:46.989Z,25.90
2022-12-01T08:31:22.405Z,25.63
2022-12-01T08:33:50.670Z,24.70
2022-12-01T08:36:18.462Z,25.38
2022-12-01T08:38:48.569Z,26.95
2022-12-01T08:41:16.023Z,22.70
2022-12-01T08:44:01.122Z,21.70
2022-12-01T08:46:32.578Z,23.38
2022-12-01T08:48:59.997Z,23.20
2022-12-01T08:51:27.397Z,21.50
2022-12-01T08:53:56.513Z,22.13
2022-12-01T08:56:30.893Z,19.15
2022-12-01T08:58:58.317Z,19.38
2022-12-01T09:01:26.054Z,19.77
2022-12-01T09:04:08.483Z,21.02
2022-12-01T09:06:45.371Z,18.90
2022-12-01T09:09:16.420Z,18.98
2022-12-01T09:19:32.808Z,18.92
2022-12-01T09:22:10.775Z,18.00
2022-12-01T09:24:38.450Z,19.40
2022-12-01T09:27:06.311Z,15.63
2022-12-01T09:29:33.591Z,19.70
2022-12-01T09:32:01.292Z,17.20
2022-12-01T09:34:29.268Z,17.17
2022-12-01T09:36:58.529Z,22.60
2022-12-01T09:39:25.646Z,42.20
2022-12-01T09:42:07.444Z,36.97
2022-12-01T09:44:54.843Z,18.50
2022-12-01T09:47:29.913Z,19.85
2022-12-01T09:50:09.893Z,16.48
2022-12-01T09:52:47.834Z,19.17
2022-12-01T09:55:19.487Z,19.30
2022-12-01T09:57:52.263Z,19.92
2022-12-01T10:00:23.198Z,19.13
2022-12-01T10:03:17.361Z,18.77
2022-12-01T10:08:51.046Z,17.70
2022-12-01T10:11:34.453Z,17.52
2022-12-01T10:14:03.325Z,20.45
2022-12-01T10:16:55.455Z,20.23
2022-12-01T10:19:32.977Z,20.58
2022-12-01T10:22:26.676Z,20.95
2022-12-01T10:25:16.917Z,20.17
2022-12-01T10:28:02.707Z,23.20
2022-12-01T10:30:29.758Z,24.00
2022-12-01T10:33:06.941Z,23.20
2022-12-01T10:35:37.675Z,26.23
2022-12-01T10:38:17.798Z,23.60
2022-12-01T10:40:45.628Z,26.73
2022-12-01T10:43:12.530Z,28.35
2022-12-01T10:45:44.009Z,28.70
2022-12-01T10:48:15.172Z,28.42
2022-12-01T10:50:53.891Z,30.45
2022-12-01T10:53:23.830Z,29.15
2022-12-01T10:56:12.365Z,30.50
2022-12-01T10:59:02.589Z,30.98
2022-12-01T11:01:35.015Z,33.30
2022-12-01T11:04:28.241Z,30.33
2022-12-01T11:06:55.479Z,32.25
2022-12-01T11:09:28.031Z,29.70
2022-12-01T11:12:04.891Z,28.90
2022-12-01T11:14:53.255Z,30.83
2022-12-01T11:17:31.889Z,27.83
2022-12-01T11:19:59.446Z,29.98
2022-12-01T11:22:30.451Z,30.38
2022-12-01T11:25:02.928Z,30.50
2022-12-01T11:27:37.296Z,31.48
2022-12-01T11:30:15.813Z,29.90
2022-12-01T11:32:52.840Z,30.42
2022-12-01T11:35:22.395Z,29.33
2022-12-01T11:38:27.545Z,28.08
2022-12-01T11:40:54.521Z,30.58
2022-12-01T11:43:33.104Z,28.35
2022-12-01T11:46:03.981Z,29.13
2022-12-01T11:48:34.504Z,27.88
2022-12-01T11:51:06.199Z,27.42
2022-12-01T11:53:42.080Z,27.55
2022-12-01T11:56:30.170Z,27.13
2022-12-01T11:59:05.525Z,28.98
2022-12-01T12:01:43.730Z,29.20
2022-12-01T12:04:39.778Z,28.55
2022-12-01T12:07:25.707Z,29.42
2022-12-01T12:10:01.505Z,30.33
2022-12-01T12:12:42.946Z,29.33
2022-12-01T12:15:26.097Z,28.77
2022-12-01T12:18:22.490Z,29.17
2022-12-01T12:21:17.223Z,31.75
2022-12-01T12:24:03.346Z,30.15
2022-12-01T12:26:37.916Z,30.98
2022-12-01T12:29:19.213Z,28.33
2022-12-01T12:32:30.327Z,29.88
2022-12-01T12:35:30.905Z,27.88
2022-12-01T12:37:58.693Z,28.55
2022-12-01T12:40:44.209Z,31.13
2022-12-01T12:43:46.058Z,28.50
2022-12-01T12:46:26.403Z,30.35
2022-12-01T12:49:19.709Z,29.98
2022-12-01T12:52:02.576Z,31.50
2022-12-01T12:54:45.334Z,28.23
2022-12-01T12:57:31.530Z,29.38
2022-12-01T13:00:05.189Z,26.67
2022-12-01T13:03:33.911Z,25.70
2022-12-01T13:06:07.105Z,28.42
2022-12-01T13:08:44.304Z,24.75
2022-12-01T13:11:37.916Z,24.65
2022-12-01T13:14:22.952Z,26.30
2022-12-01T13:16:52.964Z,28.33
2022-12-01T13:19:36.445Z,26.70
2022-12-01T13:22:07.291Z,28.38
2022-12-01T13:24:34.541Z,25.63
2022-12-01T13:27:07.403Z,24.95
2022-12-01T13:29:43.816Z,29.63
2022-12-01T13:32:33.470Z,26.77
2022-12-01T13:35:03.384Z,27.23
2022-12-01T13:37:36.554Z,27.73
2022-12-01T13:40:27.338Z,27.67
2022-12-01T13:43:05.492Z,31.30
2022-12-01T13:45:40.636Z,29.00
2022-12-01T13:48:29.580Z,27.92
2022-12-01T13:51:02.124Z,31.38
2022-12-01T13:53:38.096Z,31.52
2022-12-01T13:56:17.448Z,33.80
2022-12-01T13:58:50.441Z,29.90
2022-12-01T14:01:20.849Z,33.53
2022-12-01T14:03:56.878Z,32.42
2022-12-01T14:06:38.441Z,33.10
2022-12-01T14:09:16.442Z,31.23
2022-12-01T14:12:18.365Z,32.50
2022-12-01T14:14:56.115Z,34.72
2022-12-01T14:17:37.571Z,32.85
2022-12-01T14:20:08.458Z,32.42
2022-12-01T14:22:44.074Z,32.40
2022-12-01T14:25:29.233Z,32.78
2022-12-01T14:28:01.515Z,32.63
2022-12-01T14:30:47.081Z,34.47
2022-12-01T14:33:51.513Z,33.38
2022-12-01T14:36:24.522Z,33.47
2022-12-01T14:39:00.054Z,33.28
2022-12-01T14:41:51.146Z,33.47
2022-12-01T14:44:41.843Z,35.78
2022-12-01T14:47:22.002Z,34.33
2022-12-01T14:50:02.260Z,35.33
2022-12-01T14:52:29.135Z,35.28
2022-12-01T14:55:03.084Z,34.05
2022-12-01T14:57:39.807Z,35.30
2022-12-01T15:00:13.378Z,37.20
2022-12-01T15:02:51.811Z,36.40
2022-12-01T15:05:21.992Z,35.95
2022-12-01T15:08:06.719Z,35.95
2022-12-01T15:10:56.602Z,37.35
2022-12-01T15:13:23.850Z,39.83
2022-12-01T15:15:57.781Z,37.78
2022-12-01T15:18:28.869Z,40.00
2022-12-01T15:21:06.159Z,41.17
2022-12-01T15:23:33.096Z,41.42
2022-12-01T15:26:00.148Z,41.50
2022-12-01T15:28:36.051Z,42.30
2022-12-01T15:31:13.341Z,39.63
2022-12-01T15:33:51.534Z,41.50
2022-12-01T15:36:18.839Z,39.13
2022-12-01T15:38:47.855Z,45.35
2022-12-01T15:41:30.204Z,42.40
2022-12-01T15:44:01.980Z,46.47
2022-12-01T15:46:32.257Z,45.75
2022-12-01T15:49:19.895Z,42.05
2022-12-01T15:51:51.016Z,43.33
2022-12-01T15:54:24.512Z,45.03
2022-12-01T15:56:58.678Z,43.17
2022-12-01T16:01:59.362Z,46.70
2022-12-01T16:04:29.513Z,43.85
2022-12-01T16:07:09.963Z,44.95
2022-12-01T16:09:56.082Z,47.05
2022-12-01T16:12:32.947Z,47.05
2022-12-01T16:15:13.204Z,46.95
2022-12-01T16:17:46.131Z,45.58
2022-12-01T16:20:25.256Z,46.03
2022-12-01T16:23:04.651Z,43.35
2022-12-01T16:25:40.373Z,46.95
2022-12-01T16:28:18.418Z,45.47
2022-12-01T16:30:47.864Z,46.00
2022-12-01T16:33:29.819Z,46.42
2022-12-01T16:36:00.364Z,41.88
2022-12-01T16:38:29.464Z,44.05
2022-12-01T16:40:59.995Z,43.40
2022-12-01T16:43:28.664Z,43.10
2022-12-01T16:46:01.151Z,43.22
2022-12-01T16:48:28.544Z,47.47
2022-12-01T16:50:56.789Z,42.65
2022-12-01T16:53:23.787Z,43.65
2022-12-01T16:55:59.241Z,42.90
2022-12-01T16:58:26.345Z,44.97
2022-12-01T17:00:54.044Z,42.97
2022-12-01T17:03:25.867Z,43.58
2022-12-01T17:05:53.803Z,41.53
2022-12-01T17:08:21.207Z,41.30
2022-12-01T17:10:52.482Z,46.30
2022-12-01T17:13:21.666Z,42.08
2022-12-01T17:15:50.337Z,41.75
2022-12-01T17:18:19.659Z,42.60
2022-12-01T17:20:59.836Z,42.28
2022-12-01T17:23:27.373Z,45.10
2022-12-01T17:25:54.649Z,44.42
2022-12-01T17:28:22.196Z,42.85
2022-12-01T17:30:49.259Z,41.53
2022-12-01T17:33:16.311Z,45.47
2022-12-01T17:35:43.213Z,43.63
2022-12-01T17:38:10.311Z,44.05
2022-12-01T17:40:37.276Z,44.75
2022-12-01T17:43:04.238Z,41.38
2022-12-01T17:45:32.509Z,41.40
2022-12-01T17:47:59.592Z,40.72
2022-12-01T17:50:26.532Z,42.80
2022-12-01T17:52:53.549Z,40.92
2022-12-01T17:55:20.384Z,44.03
2022-12-01T17:57:47.543Z,42.35
2022-12-01T18:00:15.053Z,43.55
2022-12-01T18:02:42.167Z,38.88
2022-12-01T18:05:09.374Z,41.40
2022-12-01T18:07:37.008Z,43.20
2022-12-01T18:10:04.615Z,43.08
2022-12-01T18:12:31.613Z,42.38
2022-12-01T18:14:58.547Z,42.90
2022-12-01T18:17:26.490Z,41.80
2022-12-01T18:19:53.427Z,44.53
2022-12-01T18:22:20.355Z,43.63
2022-12-01T18:24:47.276Z,45.03
2022-12-01T18:27:14.255Z,38.40
2022-12-01T18:29:41.337Z,41.00
2022-12-01T18:32:08.465Z,40.55
2022-12-01T18:34:35.737Z,41.15
2022-12-01T18:37:03.599Z,41.85
2022-12-01T18:39:30.672Z,43.78
2022-12-01T18:41:57.881Z,43.67
2022-12-01T18:44:24.846Z,40.40
2022-12-01T18:46:51.958Z,41.08
2022-12-01T18:49:19.788Z,42.92
2022-12-01T18:51:46.889Z,39.78
2022-12-01T18:54:15.086Z,40.83
2022-12-01T18:56:42.587Z,37.53
2022-12-01T18:59:11.602Z,39.38
2022-12-01T19:01:43.819Z,39.10
2022-12-01T19:04:11.541Z,39.17
2022-12-01T19:06:40.121Z,41.22
2022-12-01T19:09:09.560Z,40.33
2022-12-01T19:11:37.994Z,41.28
2022-12-01T19:14:05.249Z,39.10
2022-12-01T19:16:32.455Z,41.40
2022-12-01T19:19:00.985Z,40.92
2022-12-01T19:21:28.124Z,40.35
2022-12-01T19:23:55.186Z,37.40
2022-12-01T19:26:23.245Z,37.70
2022-12-01T19:28:50.584Z,38.88
2022-12-01T19:31:23.738Z,35.38
2022-12-01T19:33:52.730Z,37.67
2022-12-01T19:36:25.215Z,38.05
2022-12-01T19:38:53.170Z,35.15
2022-12-01T19:41:20.937Z,39.20
2022-12-01T19:43:48.557Z,35.35
2022-12-01T19:46:18.903Z,35.58
2022-12-01T19:48:46.763Z,37.30
2022-12-01T19:51:29.049Z,37.20
2022-12-01T19:53:56.766Z,37.90
2022-12-01T19:56:24.962Z,36.17
2022-12-01T19:58:52.294Z,40.25
2022-12-01T20:01:20.201Z,39.05
2022-12-01T20:03:49.510Z,37.58
2022-12-01T20:06:22.196Z,39.10
2022-12-01T20:08:49.438Z,36.97
2022-12-01T20:11:16.721Z,40.75
2022-12-01T20:13:46.355Z,36.30
2022-12-01T20:16:21.463Z,41.05
2022-12-01T20:18:49.362Z,36.97
2022-12-01T20:21:19.290Z,38.65
2022-12-01T20:23:51.421Z,40.05
2022-12-01T20:26:19.818Z,37.67
2022-12-01T20:28:49.478Z,36.10
2022-12-01T20:31:20.543Z,38.35
2022-12-01T20:33:48.989Z,40.78
2022-12-01T20:36:17.894Z,37.17
2022-12-01T20:38:45.027Z,37.72
2022-12-01T20:41:12.431Z,38.00
2022-12-01T20:43:39.547Z,39.35
2022-12-01T20:46:07.211Z,36.60
2022-12-01T20:48:34.720Z,34.28
2022-12-01T20:51:03.571Z,40.25
2022-12-01T20:53:30.533Z,37.58
2022-12-01T20:55:57.784Z,35.72
2022-12-01T20:58:24.763Z,39.63
2022-12-01T21:00:51.710Z,35.83
2022-12-01T21:03:18.800Z,36.08
2022-12-01T21:05:45.707Z,35.15
2022-12-01T21:08:13.917Z,35.47
2022-12-01T21:10:44.812Z,34.58
2022-12-01T21:13:39.286Z,35.15
2022-12-01T21:16:16.869Z,34.88
2022-12-01T21:18:52.746Z,36.90
2022-12-01T21:21:35.464Z,36.28
2022-12-01T21:24:11.052Z,35.20
2022-12-01T21:26:41.197Z,34.80
2022-12-01T21:29:20.318Z,35.78
2022-12-01T21:31:50.834Z,33.55
2022-12-01T21:34:21.714Z,36.72
2022-12-01T21:36:50.808Z,35.50
2022-12-01T21:39:21.164Z,36.22
2022-12-01T21:41:53.828Z,32.97
2022-12-01T21:44:22.606Z,31.48
2022-12-01T21:46:56.757Z,32.10
2022-12-01T21:52:19.461Z,29.08
2022-12-01T21:54:47.055Z,30.35
2022-12-01T21:57:44.754Z,33.30
2022-12-01T22:00:27.782Z,28.20
2022-12-01T22:03:13.967Z,28.75
2022-12-01T22:05:42.191Z,29.65
2022-12-01T22:08:33.829Z,27.30
2022-12-01T22:11:22.112Z,29.92
2022-12-01T22:13:59.815Z,24.42
2022-12-01T22:16:30.948Z,26.52
2022-12-01T22:19:00.719Z,23.33
2022-12-01T22:21:34.053Z,23.13
2022-12-01T22:24:10.091Z,28.05
2022-12-01T22:27:04.137Z,25.55
2022-12-01T22:29:43.992Z,27.02
2022-12-01T22:32:13.689Z,26.50
2022-12-01T22:34:50.207Z,26.65
2022-12-01T22:37:31.037Z,24.58
2022-12-01T22:39:58.293Z,25.95
2022-12-01T22:42:35.574Z,26.95
2022-12-01T22:45:25.631Z,23.67
2022-12-01T22:48:00.606Z,25.27
2022-12-01T22:50:27.543Z,22.60
2022-12-01T22:52:59.583Z,24.95
2022-12-01T22:55:26.588Z,23.65
2022-12-01T22:57:53.932Z,25.63
2022-12-01T23:00:23.426Z,25.15
2022-12-01T23:02:53.187Z,27.55
2022-12-01T23:05:29.222Z,26.42
2022-12-01T23:07:57.097Z,27.52
2022-12-01T23:10:30.412Z,27.08
2022-12-01T23:13:08.568Z,28.23
2022-12-01T23:15:40.633Z,27.85
2022-12-01T23:18:23.476Z,28.10
2022-12-01T23:20:52.994Z,29.45
2022-12-01T23:23:22.209Z,26.20
2022-12-01T23:25:50.596Z,27.25
2022-12-01T23:28:18.548Z,27.63
2022-12-01T23:30:48.012Z,25.58
2022-12-01T23:33:26.557Z,26.40
2022-12-01T23:35:55.966Z,26.23
2022-12-01T23:38:26.226Z,26.02
2022-12-01T23:40:55.782Z,23.83
2022-12-01T23:43:33.263Z,24.05
2022-12-01T23:46:05.265Z,24.05
2022-12-01T23:48:37.434Z,23.63
2022-12-01T23:51:05.266Z,23.88
2022-12-01T23:53:33.318Z,22.92
2022-12-01T23:56:15.972Z,23.88
2022-12-01T23:58:44.328Z,24.33
